CDT,Max TemperatureF,Mean TemperatureF,Min TemperatureF,Max Dew PointF,MeanDew PointF,Min DewpointF,Max Humidity, Mean Humidity, Min Humidity, Max Sea Level PressureIn, Mean Sea Level PressureIn, Min Sea Level PressureIn, Max VisibilityMiles, Mean VisibilityMiles, Min VisibilityMiles, Max Wind SpeedMPH, Mean Wind SpeedMPH, Max Gust SpeedMPH,PrecipitationIn, CloudCover, Events, WindDirDegrees
2014-4-1,43,32,21,20,16,12,68,53,40,30.15,30.07,29.94,10,10,9,33,19,46,0.00,3,,327
2014-4-2,48,38,28,39,30,18,93,70,41,30.11,29.96,29.80,10,8,2,20,11,25,0.00,5,Rain,47
2014-4-3,42,38,33,39,35,30,93,90,86,29.81,29.76,29.72,10,3,2,25,14,30,0.05,8,Rain-Snow,353
2014-4-4,44,32,26,33,30,23,96,87,76,30.16,29.93,29.80,10,6,1,30,20,39,0.03,7,Snow,317
2014-4-5,62,40,19,33,23,17,96,70,25,30.17,30.08,29.94,10,6,0,23,8,30,0.00,0,Fog,160
2014-4-6,66,52,37,38,34,28,71,53,29,29.95,29.88,29.81,10,9,5,21,11,24,0.00,5,,177
2014-4-7,68,52,37,44,34,27,86,58,23,29.93,29.83,29.77,10,10,8,28,8,32,0.00,5,Rain,330
2014-4-8,62,46,30,35,27,14,82,54,17,30.09,30.04,29.93,10,10,10,21,14,28,0.00,3,,327
2014-4-9,84,54,27,27,22,16,67,34,12,30.04,29.81,29.56,10,10,10,29,12,38,0.00,0,,185
2014-4-10,70,57,39,40,25,15,65,34,14,29.98,29.86,29.54,10,10,10,30,13,44,0.00,0,,336
2014-4-11,80,55,32,31,23,18,56,31,11,30.02,29.93,29.76,10,10,10,20,7,26,0.00,0,,183
2014-4-12,84,70,57,55,48,32,65,48,33,29.74,29.58,29.47,10,9,5,21,12,30,0.00,2,,186
2014-4-13,57,46,33,49,36,25,90,84,69,30.00,29.75,29.60,10,5,0,40,26,52,0.88,7,Fog-Rain-Snow,358
2014-4-14,43,35,28,24,20,17,75,59,40,30.23,30.15,30.01,10,10,10,31,21,38,0.00,4,,332
2014-4-15,54,38,21,30,23,16,81,58,33,30.24,30.08,29.81,10,10,10,25,9,31,0.00,0,,144
2014-4-16,70,52,35,32,29,26,73,50,21,30.12,29.79,29.64,10,10,10,37,25,47,0.00,4,,218
2014-4-17,55,44,32,29,23,19,73,53,24,30.35,30.27,30.14,10,10,10,21,12,25,0.00,4,,337
2014-4-18,72,48,25,39,30,19,78,51,28,30.29,30.19,30.04,10,9,4,25,8,34,0.00,0,,164
2014-4-19,82,67,53,46,43,40,62,42,28,30.04,29.98,29.92,10,10,10,28,17,34,0.00,3,,174
2014-4-20,87,70,57,56,48,44,73,50,28,29.96,29.92,29.84,10,10,10,20,12,24,0.00,2,Thunderstorm,174
2014-4-21,78,66,46,56,39,17,93,49,11,30.14,29.98,29.87,10,10,5,32,15,43,0.04,2,Rain-Thunderstorm,336
2014-4-22,72,52,33,33,30,25,75,43,22,30.16,30.07,29.94,10,10,10,16,8,,0.00,2,,93
2014-4-23,62,56,50,48,41,32,86,61,43,29.95,29.79,29.64,10,10,4,33,17,41,0.38,4,Rain-Thunderstorm,131
2014-4-24,66,57,46,51,45,39,90,72,39,29.79,29.70,29.62,10,9,7,20,10,28,0.05,5,Rain,348
2014-4-25,81,59,37,42,37,32,93,50,18,29.83,29.78,29.71,10,10,8,15,6,23,0.00,0,,225
2014-4-26,84,64,44,50,44,37,79,49,28,29.75,29.62,29.48,10,10,10,32,13,43,0.00,2,,111
2014-4-27,66,60,55,58,53,45,94,76,51,29.46,29.36,29.23,10,9,4,29,23,36,0.47,5,Rain-Thunderstorm,118
2014-4-28,69,60,50,57,52,43,90,73,45,29.39,29.25,29.19,10,10,7,28,17,34,0.03,8,Rain-Thunderstorm,145
2014-4-29,48,44,39,47,40,35,93,86,76,29.88,29.61,29.39,10,9,4,28,21,37,0.21,8,Rain,347
2014-4-30,46,44,41,39,37,34,86,77,68,29.95,29.91,29.87,10,10,8,29,19,37,0.02,8,Rain,314